Kennicott — WCY2920 — position and weather

sailwx.info

Track history (hours):
 
Tides and Currents Weather Stations Pressure Air Temp Water Temp Dewpoint Dewpoint Depression Visibility Wind Speed Wind Dir Waves Ship Positions

Kennicott

Owner: ALASKA, STATE OF, Anchorage, AK. More information available from US FCC via Universal Licensing System and Coast Guard Vessel Documentation Center.

Last reported at 2018-May-24 00:19 UTC. Time now 2018-May-24 02:32 UTC.
Position N 58°13' W 135°18'.

Type: Passenger vessel. MMSI: 368250000.

Date/timePositionNaut miles runAvg speedWind from/ knotsBaromVisibWave heightAir tempDewpointWater temp
2018-May-24 00:19N 58°13' W 135°18'517.0
2018-May-24 00:00N 58°14' W 135°27'917.4
2018-May-23 23:30N 58°17' W 135°43'917.6
2018-May-23 23:00N 58°19' W 135°59'816.1
2018-May-23 22:30N 58°18' W 136°14'8515.4
2018-May-23 17:00N 58°54' W 138°42'2613.7 120 / 11 14.4
2018-May-23 15:06N 59°11' W 139°20'15111.5
2018-May-23 02:00N 59°36' W 144°12'4314.4 090 / 24
2018-May-22 23:00N 59°54' W 145°30'104 8.0 050 / 241008.0 5.4 9.4
2018-May-22 10:00N 60°42' W 148°36'82 7.4 090 / 91005.0 2.2 7.2
2018-May-21 23:00N 59°24' W 149°24'7815.6 030 / 26995.010.8 8.9
2018-May-21 18:00N 58°24' W 151°00'73 3.3 050 / 37987.5 5.4 8.3
2018-May-20 20:00N 59°36' W 151°24'   1002.5 5.4 8.9
2018-May-17 04:00N 59°36' W 144°18'260 9.5 200 / 151026.627.0 8.9 7.8
2018-May-16 00:34N 58°14' W 136°20'117.9
2018-May-16 00:31N 58°14' W 136°18'917.0
2018-May-16 00:00N 58°15' W 136°02'917.1
2018-May-15 23:30N 58°18' W 135°47'917.1
2018-May-15 23:00N 58°15' W 135°32'10 0.7
2018-May-15 09:09N 58°12' W 135°14'315.2
2018-May-15 08:59N 58°13' W 135°19'713.6
2018-May-15 08:30N 58°15' W 135°31'713.5
2018-May-15 08:00N 58°17' W 135°43'714.5
2018-May-15 07:30N 58°19' W 135°56'713.9
2018-May-15 07:00N 58°19' W 136°09'1613.6
2018-May-15 05:48N 58°11' W 136°36'  
Track history (hours):
 
Tides and Currents Weather Stations Pressure Air Temp Water Temp Dewpoint Dewpoint Depression Visibility Wind Speed Wind Dir Waves Ship Positions

Kennicott

Owner: ALASKA, STATE OF, Anchorage, AK. More information available from US FCC via Universal Licensing System and Coast Guard Vessel Documentation Center.

Last reported at 2018-May-24 00:19 UTC. Time now 2018-May-24 02:32 UTC.
Position N 58°13' W 135°18'.

Type: Passenger vessel. MMSI: 368250000.

Date/timePositionNaut miles runAvg speedWind from/ knotsBaromVisibWave heightAir tempDewpointWater temp
2018-May-24 00:19N 58°13' W 135°18'517.0
2018-May-24 00:00N 58°14' W 135°27'917.4
2018-May-23 23:30N 58°17' W 135°43'917.6
2018-May-23 23:00N 58°19' W 135°59'816.1
2018-May-23 22:30N 58°18' W 136°14'8515.4
2018-May-23 17:00N 58°54' W 138°42'2613.7 120 / 11 14.4
2018-May-23 15:06N 59°11' W 139°20'15111.5
2018-May-23 02:00N 59°36' W 144°12'4314.4 090 / 24
2018-May-22 23:00N 59°54' W 145°30'104 8.0 050 / 241008.0 5.4 9.4
2018-May-22 10:00N 60°42' W 148°36'82 7.4 090 / 91005.0 2.2 7.2
2018-May-21 23:00N 59°24' W 149°24'7815.6 030 / 26995.010.8 8.9
2018-May-21 18:00N 58°24' W 151°00'73 3.3 050 / 37987.5 5.4 8.3
2018-May-20 20:00N 59°36' W 151°24'   1002.5 5.4 8.9
2018-May-17 04:00N 59°36' W 144°18'260 9.5 200 / 151026.627.0 8.9 7.8
2018-May-16 00:34N 58°14' W 136°20'117.9
2018-May-16 00:31N 58°14' W 136°18'917.0
2018-May-16 00:00N 58°15' W 136°02'917.1
2018-May-15 23:30N 58°18' W 135°47'917.1
2018-May-15 23:00N 58°15' W 135°32'10 0.7
2018-May-15 09:09N 58°12' W 135°14'315.2
2018-May-15 08:59N 58°13' W 135°19'713.6
2018-May-15 08:30N 58°15' W 135°31'713.5
2018-May-15 08:00N 58°17' W 135°43'714.5
2018-May-15 07:30N 58°19' W 135°56'713.9
2018-May-15 07:00N 58°19' W 136°09'1613.6
2018-May-15 05:48N 58°11' W 136°36'  

Dump ship's entire track history